Time;durP1;ratioP1;P1;durP2;ratioP2;P2;SDS_P1;SDS_P2;PMS_P1;PMS_P2;Temp;Humidity;BMP_temperature;BMP_pressure;BME280_temperature;BME280_humidity;BME280_pressure;Samples;Min_cycle;Max_cycle;Signal;HPM_P1;HPM_P2
2023/08/16 00:01:59;;;;;;;7.32;3.78;;;23.00;65.80;;;;;;5062757;28;20403;-62
2023/08/16 00:04:24;;;;;;;7.88;3.55;;;22.90;65.90;;;;;;5060087;28;20032;-61
2023/08/16 00:06:50;;;;;;;5.43;3.45;;;22.80;65.90;;;;;;5061436;28;20090;-63
2023/08/16 00:09:17;;;;;;;5.63;3.47;;;22.80;66.10;;;;;;5066748;28;20119;-62
2023/08/16 00:11:42;;;;;;;7.53;3.70;;;22.80;66.30;;;;;;5069335;28;20457;-62
2023/08/16 00:14:08;;;;;;;5.70;3.50;;;22.80;66.50;;;;;;5065983;28;20454;-62
2023/08/16 00:16:34;;;;;;;6.60;3.75;;;22.70;66.60;;;;;;5062518;28;20033;-62
2023/08/16 00:18:59;;;;;;;6.68;3.63;;;22.70;66.70;;;;;;5056290;28;20029;-63
2023/08/16 00:21:25;;;;;;;12.18;3.72;;;22.70;66.70;;;;;;5068087;28;20528;-63
2023/08/16 00:23:51;;;;;;;5.38;3.67;;;22.70;66.60;;;;;;5059851;28;20029;-63
2023/08/16 00:26:16;;;;;;;4.70;3.65;;;22.70;66.80;;;;;;5065053;28;20016;-63
2023/08/16 00:28:45;;;;;;;8.60;3.50;;;22.60;67.00;;;;;;4952896;28;20037;-64
2023/08/16 00:31:11;;;;;;;5.97;3.30;;;22.60;67.20;;;;;;5057782;28;20029;-62
2023/08/16 00:33:37;;;;;;;4.35;3.33;;;22.60;67.20;;;;;;5063402;28;20017;-62
2023/08/16 00:36:03;;;;;;;12.45;4.18;;;22.60;67.20;;;;;;5062916;28;20029;-61
2023/08/16 00:38:28;;;;;;;5.88;3.80;;;22.60;67.40;;;;;;5060719;28;20070;-63
2023/08/16 00:40:54;;;;;;;11.68;4.03;;;22.50;67.50;;;;;;5067469;28;20029;-63
2023/08/16 00:43:20;;;;;;;6.70;3.70;;;22.50;67.60;;;;;;5059931;28;20033;-63
2023/08/16 00:45:48;;;;;;;5.93;3.42;;;22.50;67.50;;;;;;5061672;28;20033;-63
2023/08/16 00:48:14;;;;;;;8.48;3.83;;;22.50;67.70;;;;;;5063085;28;20032;-63
2023/08/16 00:50:40;;;;;;;8.30;3.55;;;22.50;67.50;;;;;;5063018;28;20089;-63
2023/08/16 00:53:06;;;;;;;5.00;3.40;;;22.40;67.50;;;;;;5055560;28;20068;-61
2023/08/16 00:55:33;;;;;;;7.72;4.13;;;22.40;67.40;;;;;;5062181;28;20028;-63
2023/08/16 00:57:59;;;;;;;6.50;3.38;;;22.40;67.50;;;;;;5061341;28;20131;-62
2023/08/16 01:00:25;;;;;;;10.35;3.92;;;22.30;67.50;;;;;;5068352;28;20357;-62
2023/08/16 01:02:51;;;;;;;4.90;3.35;;;22.30;67.70;;;;;;5060468;28;20383;-62
2023/08/16 01:05:17;;;;;;;5.60;3.42;;;22.30;67.70;;;;;;5056477;28;20025;-63
2023/08/16 01:07:43;;;;;;;5.03;3.40;;;22.30;67.70;;;;;;5053331;28;20036;-62
2023/08/16 01:10:09;;;;;;;5.82;3.25;;;22.30;67.70;;;;;;5061880;28;20040;-62
2023/08/16 01:12:47;;;;;;;5.25;3.67;;;22.20;67.70;;;;;;5057434;28;20025;-62
2023/08/16 01:15:29;;;;;;;6.38;3.60;;;22.20;68.20;;;;;;5059031;28;20089;-63
2023/08/16 01:17:56;;;;;;;5.13;3.20;;;22.20;68.00;;;;;;5060317;28;20641;-62
2023/08/16 01:20:22;;;;;;;10.68;4.47;;;22.20;67.80;;;;;;5063856;28;20127;-63
2023/08/16 01:22:59;;;;;;;4.93;3.58;;;22.10;67.90;;;;;;5056453;28;20024;-62
2023/08/16 01:25:48;;;;;;;6.72;4.28;;;22.10;68.70;;;;;;5052921;28;20089;-62
2023/08/16 01:28:14;;;;;;;5.38;3.25;;;22.00;68.80;;;;;;4957793;28;20089;-61
2023/08/16 01:30:42;;;;;;;8.05;4.15;;;22.10;68.40;;;;;;5061642;28;20040;-62
2023/08/16 01:33:12;;;;;;;5.82;3.90;;;22.00;68.70;;;;;;5055498;28;20139;-62
2023/08/16 01:35:39;;;;;;;5.07;3.33;;;21.90;69.10;;;;;;5058325;28;20032;-62
2023/08/16 01:38:06;;;;;;;8.25;4.13;;;21.90;68.80;;;;;;5062074;28;20055;-62
2023/08/16 01:40:39;;;;;;;7.75;3.70;;;21.90;68.90;;;;;;5058241;28;20486;-62
2023/08/16 01:43:13;;;;;;;6.82;4.32;;;21.90;69.60;;;;;;5065618;28;20486;-62
2023/08/16 01:45:39;;;;;;;7.18;3.40;;;21.90;70.40;;;;;;5062439;28;20489;-62
2023/08/16 01:48:06;;;;;;;10.43;3.83;;;21.80;69.10;;;;;;5069828;28;20056;-61
2023/08/16 01:50:32;;;;;;;5.40;3.75;;;21.90;69.30;;;;;;5076108;28;20095;-62
2023/08/16 01:52:58;;;;;;;4.78;3.50;;;21.80;69.10;;;;;;5062759;28;20040;-63
2023/08/16 01:55:24;;;;;;;4.90;3.50;;;21.80;69.10;;;;;;5071882;28;20036;-62
2023/08/16 01:57:50;;;;;;;6.32;3.90;;;21.80;69.10;;;;;;5070130;28;20082;-61
2023/08/16 02:00:15;;;;;;;6.57;3.65;;;21.80;69.20;;;;;;5068603;28;20021;-62
2023/08/16 02:02:41;;;;;;;9.75;3.92;;;21.80;69.10;;;;;;5069455;28;20725;-61
2023/08/16 02:05:08;;;;;;;5.80;3.58;;;21.80;69.30;;;;;;5063005;28;20107;-62
2023/08/16 02:07:33;;;;;;;5.13;3.40;;;21.70;69.20;;;;;;5064415;28;20036;-63
2023/08/16 02:09:59;;;;;;;6.75;3.45;;;21.70;69.20;;;;;;5065038;28;20044;-62
2023/08/16 02:12:24;;;;;;;6.03;3.58;;;21.70;69.20;;;;;;5070770;28;20012;-63
2023/08/16 02:14:50;;;;;;;6.95;3.70;;;21.70;69.20;;;;;;5065905;28;20376;-62
2023/08/16 02:17:16;;;;;;;7.53;3.72;;;21.70;69.20;;;;;;5071105;28;20575;-61
2023/08/16 02:19:41;;;;;;;5.28;3.70;;;21.70;69.20;;;;;;5067687;28;20025;-61
2023/08/16 02:22:07;;;;;;;6.60;3.75;;;21.60;69.10;;;;;;5066369;28;20116;-63
2023/08/16 02:24:34;;;;;;;5.35;3.75;;;21.60;69.10;;;;;;5064324;28;20135;-62
2023/08/16 02:27:00;;;;;;;13.55;4.60;;;21.60;69.40;;;;;;5068019;28;20076;-62
2023/08/16 02:29:25;;;;;;;5.03;3.55;;;21.60;69.40;;;;;;4969586;28;20746;-62
2023/08/16 02:31:51;;;;;;;5.68;3.40;;;21.60;69.50;;;;;;5065697;28;20020;-62
2023/08/16 02:34:16;;;;;;;4.72;3.20;;;21.50;69.40;;;;;;5060619;28;20054;-62
2023/08/16 02:36:42;;;;;;;7.82;3.13;;;21.50;69.30;;;;;;5067930;28;20044;-62
2023/08/16 02:39:08;;;;;;;5.32;3.47;;;21.50;69.30;;;;;;5069847;28;20030;-63
2023/08/16 02:41:35;;;;;;;5.35;3.72;;;21.50;69.40;;;;;;5071993;28;20029;-63
2023/08/16 02:44:01;;;;;;;5.28;3.60;;;21.40;69.50;;;;;;5071203;28;20436;-62
2023/08/16 02:46:26;;;;;;;6.45;3.75;;;21.40;69.60;;;;;;5065453;28;20036;-63
2023/08/16 02:48:52;;;;;;;3.72;3.33;;;21.40;69.70;;;;;;5064018;28;20040;-61
2023/08/16 02:51:17;;;;;;;6.82;3.40;;;21.40;69.60;;;;;;5057375;28;20028;-62
2023/08/16 02:53:43;;;;;;;8.85;3.75;;;21.40;69.70;;;;;;5062790;28;20113;-62
2023/08/16 02:56:09;;;;;;;4.32;3.63;;;21.30;69.70;;;;;;5069808;28;20040;-62
2023/08/16 02:58:34;;;;;;;7.55;3.70;;;21.30;69.80;;;;;;5066236;28;20111;-63
2023/08/16 03:01:00;;;;;;;6.63;3.63;;;21.30;69.80;;;;;;5059670;28;20090;-63
2023/08/16 03:03:26;;;;;;;7.00;3.47;;;21.30;69.90;;;;;;5062571;28;20021;-62
2023/08/16 03:05:51;;;;;;;11.70;3.40;;;21.30;70.00;;;;;;5061006;28;20044;-62
2023/08/16 03:08:17;;;;;;;4.28;3.20;;;21.30;70.10;;;;;;5072709;28;20040;-62
2023/08/16 03:10:43;;;;;;;4.90;3.40;;;21.30;70.00;;;;;;5061269;28;20041;-62
2023/08/16 03:13:08;;;;;;;6.80;3.55;;;21.30;70.10;;;;;;5059793;28;20025;-62
2023/08/16 03:15:34;;;;;;;5.55;3.58;;;21.20;70.00;;;;;;5062776;28;20515;-62
2023/08/16 03:18:00;;;;;;;5.30;3.17;;;21.30;70.10;;;;;;5065988;28;20120;-61
2023/08/16 03:20:26;;;;;;;9.90;3.80;;;21.20;70.00;;;;;;5064983;28;20096;-63
2023/08/16 03:22:51;;;;;;;8.57;3.75;;;21.20;70.10;;;;;;5067049;28;20021;-62
2023/08/16 03:25:17;;;;;;;5.95;4.00;;;21.20;70.00;;;;;;5070017;28;20098;-62
2023/08/16 03:27:43;;;;;;;4.15;3.63;;;21.20;70.00;;;;;;5063950;28;20031;-62
2023/08/16 03:30:10;;;;;;;4.25;3.38;;;21.20;70.00;;;;;;5054159;28;20047;-62
2023/08/16 03:32:35;;;;;;;4.18;3.28;;;21.20;69.80;;;;;;5053722;28;20142;-62
2023/08/16 03:35:01;;;;;;;5.30;3.42;;;21.10;69.70;;;;;;5067332;28;20470;-63
2023/08/16 03:37:27;;;;;;;7.22;3.40;;;21.10;69.70;;;;;;5066841;28;20086;-63
2023/08/16 03:39:53;;;;;;;5.40;3.35;;;21.10;69.80;;;;;;5062791;28;20016;-62
2023/08/16 03:42:19;;;;;;;9.00;3.78;;;21.10;70.10;;;;;;5065667;28;20030;-61
2023/08/16 03:44:45;;;;;;;6.72;3.08;;;21.10;70.10;;;;;;5061098;28;20027;-61
2023/08/16 03:47:11;;;;;;;5.85;3.25;;;21.00;70.00;;;;;;5063485;28;20491;-62
2023/08/16 03:49:36;;;;;;;5.10;3.15;;;21.00;69.90;;;;;;5060589;28;20883;-62
2023/08/16 03:52:03;;;;;;;4.35;3.40;;;21.00;69.90;;;;;;5065234;28;20059;-62
2023/08/16 03:54:29;;;;;;;6.20;3.55;;;21.00;70.00;;;;;;5061307;28;20024;-62
2023/08/16 03:56:56;;;;;;;6.18;4.20;;;20.90;70.10;;;;;;5077809;28;20090;-61
2023/08/16 03:59:22;;;;;;;5.07;3.50;;;20.90;70.30;;;;;;5065532;28;20460;-61
2023/08/16 04:01:48;;;;;;;5.75;3.33;;;20.90;70.30;;;;;;5061755;28;20048;-62
2023/08/16 04:04:13;;;;;;;6.13;3.63;;;20.90;70.50;;;;;;5057638;28;21236;-61
2023/08/16 04:06:39;;;;;;;7.85;3.83;;;20.90;70.60;;;;;;5064803;28;20016;-62
2023/08/16 04:09:06;;;;;;;5.95;3.97;;;20.90;70.70;;;;;;5066377;28;20586;-62
2023/08/16 04:11:32;;;;;;;5.53;3.40;;;20.90;70.80;;;;;;5052208;28;20484;-61
2023/08/16 04:13:57;;;;;;;9.55;3.90;;;20.80;70.70;;;;;;5064616;28;20054;-62
2023/08/16 04:16:23;;;;;;;6.15;3.25;;;20.80;70.60;;;;;;5064158;28;20039;-63
2023/08/16 04:18:50;;;;;;;10.23;3.85;;;20.80;70.60;;;;;;5063502;28;20028;-62
2023/08/16 04:21:16;;;;;;;5.85;3.75;;;20.80;70.40;;;;;;5063614;28;20104;-62
2023/08/16 04:23:41;;;;;;;9.10;4.05;;;20.70;70.40;;;;;;5067080;28;20106;-62
2023/08/16 04:26:07;;;;;;;5.43;3.78;;;20.70;70.50;;;;;;5088751;28;20024;-61
2023/08/16 04:28:33;;;;;;;8.57;4.20;;;20.70;70.60;;;;;;5062476;28;20115;-62
2023/08/16 04:31:00;;;;;;;8.13;3.30;;;20.70;70.70;;;;;;5065919;28;20075;-62
2023/08/16 04:33:25;;;;;;;9.73;3.70;;;20.70;70.80;;;;;;5063882;28;20048;-61
2023/08/16 04:35:51;;;;;;;8.40;3.80;;;20.60;71.00;;;;;;5062111;28;20068;-61
2023/08/16 04:38:17;;;;;;;11.90;4.30;;;20.60;70.80;;;;;;5060529;28;20364;-62
2023/08/16 04:40:42;;;;;;;7.07;3.58;;;20.60;70.70;;;;;;5068951;28;20043;-63
2023/08/16 04:43:08;;;;;;;5.45;3.45;;;20.60;70.80;;;;;;5063663;28;20032;-62
2023/08/16 04:45:34;;;;;;;4.78;3.78;;;20.60;71.00;;;;;;5065585;28;20480;-62
2023/08/16 04:47:59;;;;;;;5.97;3.33;;;20.60;71.00;;;;;;5063337;28;20027;-62
2023/08/16 04:50:26;;;;;;;6.80;3.38;;;20.60;70.90;;;;;;5068519;28;20032;-61
2023/08/16 04:52:52;;;;;;;5.13;3.13;;;20.60;71.00;;;;;;5066331;28;20028;-61
2023/08/16 04:55:18;;;;;;;4.60;3.47;;;20.60;71.00;;;;;;5062494;28;20036;-61
2023/08/16 04:57:43;;;;;;;5.15;3.47;;;20.60;71.10;;;;;;5064800;28;20103;-64
2023/08/16 05:00:10;;;;;;;7.07;3.30;;;20.60;71.90;;;;;;5058639;28;20025;-62
2023/08/16 05:02:35;;;;;;;6.95;3.63;;;20.60;71.40;;;;;;5066356;28;20082;-64
2023/08/16 05:05:01;;;;;;;8.10;3.40;;;20.70;71.70;;;;;;5056257;28;20032;-62
2023/08/16 05:07:27;;;;;;;8.70;3.65;;;20.70;71.70;;;;;;5065129;28;20021;-62
2023/08/16 05:09:52;;;;;;;9.27;3.70;;;20.70;71.60;;;;;;5066924;28;20063;-61
2023/08/16 05:12:18;;;;;;;8.63;3.65;;;20.80;71.60;;;;;;5060646;28;20516;-61
2023/08/16 05:14:43;;;;;;;5.28;3.58;;;20.80;71.70;;;;;;5062444;28;20449;-62
2023/08/16 05:17:09;;;;;;;4.10;3.45;;;20.90;71.70;;;;;;5060485;28;20479;-63
2023/08/16 05:19:35;;;;;;;6.10;3.42;;;20.90;71.90;;;;;;5065206;28;20021;-64
2023/08/16 05:22:00;;;;;;;6.68;4.15;;;21.00;71.90;;;;;;5072220;28;20082;-63
2023/08/16 05:24:26;;;;;;;6.75;3.70;;;21.10;71.90;;;;;;5059843;28;20467;-61
2023/08/16 05:26:52;;;;;;;5.03;3.30;;;21.10;71.90;;;;;;5063185;28;20024;-61
2023/08/16 05:29:17;;;;;;;8.85;3.70;;;21.20;71.90;;;;;;4970227;28;20110;-62
2023/08/16 05:31:43;;;;;;;13.20;3.88;;;21.30;71.90;;;;;;5065325;28;20096;-62
2023/08/16 05:34:09;;;;;;;7.80;3.72;;;21.40;71.80;;;;;;5062402;28;20103;-62
2023/08/16 05:36:45;;;;;;;6.13;3.67;;;21.50;71.80;;;;;;5067382;28;20033;-61
2023/08/16 05:39:11;;;;;;;7.30;3.80;;;21.50;72.30;;;;;;5068507;28;20467;-62
2023/08/16 05:41:37;;;;;;;6.68;3.25;;;21.70;72.50;;;;;;5068489;28;20074;-61
2023/08/16 05:44:03;;;;;;;6.05;3.78;;;21.70;71.70;;;;;;5065250;28;20033;-61
2023/08/16 05:46:28;;;;;;;12.90;4.30;;;21.80;71.60;;;;;;5066066;28;20708;-64
2023/08/16 05:48:54;;;;;;;9.68;3.92;;;21.90;71.30;;;;;;5070409;28;20033;-61
2023/08/16 05:51:20;;;;;;;6.50;3.85;;;22.00;71.00;;;;;;5065467;28;20099;-63
2023/08/16 05:53:45;;;;;;;8.07;4.00;;;22.00;70.70;;;;;;5064916;28;20100;-62
2023/08/16 05:56:11;;;;;;;7.15;3.38;;;22.10;70.60;;;;;;5056984;28;20468;-61
2023/08/16 05:58:37;;;;;;;6.45;3.58;;;22.20;70.60;;;;;;5058742;28;20389;-63
2023/08/16 06:01:02;;;;;;;4.50;3.38;;;22.30;70.60;;;;;;5067584;28;20048;-63
2023/08/16 06:03:28;;;;;;;4.75;3.70;;;22.40;70.50;;;;;;5061144;28;20043;-62
2023/08/16 06:05:54;;;;;;;6.00;3.75;;;22.40;70.50;;;;;;5056275;28;20029;-62
2023/08/16 06:08:19;;;;;;;6.22;3.47;;;22.60;70.40;;;;;;5064010;28;20033;-64
2023/08/16 06:10:45;;;;;;;9.43;3.72;;;22.70;70.40;;;;;;5067898;28;20036;-61
2023/08/16 06:13:11;;;;;;;11.00;3.95;;;22.80;70.30;;;;;;5065015;28;20060;-62
2023/08/16 06:15:36;;;;;;;8.48;3.60;;;22.90;70.00;;;;;;5063738;28;20718;-62
2023/08/16 06:18:02;;;;;;;6.65;3.47;;;23.00;69.60;;;;;;5062924;28;20490;-62
2023/08/16 06:20:28;;;;;;;10.02;3.40;;;23.10;69.30;;;;;;5062478;28;20070;-62
2023/08/16 06:22:53;;;;;;;7.75;3.38;;;23.20;69.30;;;;;;5069687;28;20033;-61
2023/08/16 06:25:19;;;;;;;5.43;3.83;;;23.30;69.30;;;;;;5052807;28;20055;-61
2023/08/16 06:27:46;;;;;;;4.50;3.33;;;23.40;69.30;;;;;;5067800;28;20526;-62
2023/08/16 06:30:12;;;;;;;12.73;4.05;;;23.50;69.30;;;;;;5065750;28;20031;-61
2023/08/16 06:32:37;;;;;;;3.97;3.28;;;23.60;69.20;;;;;;5062039;28;20115;-62
2023/08/16 06:35:05;;;;;;;8.95;4.03;;;23.80;69.20;;;;;;5062070;28;20116;-62
2023/08/16 06:37:31;;;;;;;8.20;3.70;;;23.90;69.00;;;;;;5060639;28;20039;-63
2023/08/16 06:39:57;;;;;;;8.57;3.55;;;24.00;68.80;;;;;;5062212;28;20036;-62
2023/08/16 06:42:22;;;;;;;9.93;3.92;;;24.20;68.80;;;;;;5062226;28;20025;-62
2023/08/16 06:44:48;;;;;;;9.20;4.30;;;24.30;68.50;;;;;;5057788;28;20036;-62
2023/08/16 06:47:14;;;;;;;7.45;4.38;;;24.50;68.40;;;;;;5061303;28;20037;-61
2023/08/16 06:49:39;;;;;;;8.68;4.75;;;24.60;68.20;;;;;;5058922;28;20023;-62
2023/08/16 06:52:05;;;;;;;8.40;4.60;;;24.70;67.90;;;;;;5057341;28;20573;-63
2023/08/16 06:54:32;;;;;;;6.97;4.20;;;24.80;67.70;;;;;;5088773;27;20083;-62
2023/08/16 06:56:58;;;;;;;9.77;4.60;;;25.00;67.40;;;;;;5065311;28;20063;-63
2023/08/16 06:59:24;;;;;;;8.32;3.65;;;25.10;67.00;;;;;;5065795;28;20029;-63
2023/08/16 07:01:50;;;;;;;6.55;3.95;;;25.30;66.90;;;;;;5060746;28;20028;-62
2023/08/16 07:04:16;;;;;;;7.28;4.72;;;25.40;66.50;;;;;;5064837;28;20029;-63
2023/08/16 07:06:41;;;;;;;20.55;5.43;;;25.50;66.20;;;;;;5057419;28;20025;-63
2023/08/16 07:09:07;;;;;;;6.82;4.07;;;25.70;66.10;;;;;;5059539;28;20037;-63
2023/08/16 07:11:33;;;;;;;8.48;4.18;;;25.80;65.80;;;;;;5061385;28;20495;-62
2023/08/16 07:14:00;;;;;;;6.70;3.97;;;25.90;65.70;;;;;;5055445;28;20426;-63
2023/08/16 07:16:25;;;;;;;7.47;4.43;;;26.00;65.50;;;;;;5069057;28;20152;-62
2023/08/16 07:18:51;;;;;;;8.95;4.25;;;26.10;65.30;;;;;;5062067;28;20436;-62
2023/08/16 07:21:17;;;;;;;9.43;4.13;;;26.30;65.40;;;;;;5068182;28;20503;-62
2023/08/16 07:23:44;;;;;;;9.52;5.10;;;26.30;65.00;;;;;;5063392;28;20086;-63
2023/08/16 07:26:10;;;;;;;7.78;4.55;;;26.50;64.80;;;;;;5064984;28;20055;-62
2023/08/16 07:28:36;;;;;;;6.88;4.20;;;26.60;64.60;;;;;;5059517;28;20040;-62
2023/08/16 07:31:02;;;;;;;7.65;4.45;;;26.70;64.40;;;;;;5059136;28;20023;-62
2023/08/16 07:33:30;;;;;;;6.70;4.60;;;26.80;64.40;;;;;;5064168;28;20042;-63
2023/08/16 07:36:00;;;;;;;8.20;4.60;;;26.90;63.90;;;;;;5054788;28;20043;-64
2023/08/16 07:38:26;;;;;;;5.93;4.32;;;27.00;63.30;;;;;;5059755;28;20033;-63
2023/08/16 07:40:51;;;;;;;9.07;3.97;;;27.10;63.40;;;;;;5053533;28;20384;-61
2023/08/16 07:43:17;;;;;;;6.68;4.00;;;27.20;63.50;;;;;;5050129;28;20028;-62
2023/08/16 07:45:43;;;;;;;9.45;5.80;;;27.30;63.20;;;;;;5058028;28;20117;-63
2023/08/16 07:48:08;;;;;;;10.65;4.88;;;27.30;63.00;;;;;;5063024;28;20048;-62
2023/08/16 07:50:34;;;;;;;8.95;5.10;;;27.40;62.80;;;;;;5059696;28;20040;-64
2023/08/16 07:53:00;;;;;;;8.32;4.85;;;27.50;62.70;;;;;;5065672;28;20024;-64
2023/08/16 07:55:32;;;;;;;8.25;4.57;;;27.60;62.40;;;;;;5064859;28;20031;-63
2023/08/16 07:57:58;;;;;;;12.10;4.40;;;27.70;62.00;;;;;;5058185;28;20020;-62
2023/08/16 08:00:24;;;;;;;5.78;4.15;;;27.70;62.10;;;;;;5060112;28;23126;-61
2023/08/16 08:02:49;;;;;;;8.80;4.20;;;27.80;61.90;;;;;;5059124;28;20032;-62
2023/08/16 08:05:15;;;;;;;9.60;4.47;;;27.90;61.90;;;;;;5056000;28;20036;-62
2023/08/16 08:07:41;;;;;;;6.82;4.22;;;28.00;61.80;;;;;;5064371;28;20028;-63
2023/08/16 08:10:07;;;;;;;7.90;4.20;;;28.10;61.60;;;;;;5057828;28;20048;-62
2023/08/16 08:12:33;;;;;;;7.88;4.60;;;28.10;61.10;;;;;;5061120;28;20128;-62
2023/08/16 08:14:59;;;;;;;6.18;4.07;;;28.20;60.90;;;;;;5058328;28;20682;-62
2023/08/16 08:17:25;;;;;;;6.18;3.63;;;28.20;60.50;;;;;;5054247;28;20095;-62
2023/08/16 08:19:51;;;;;;;7.45;4.30;;;28.30;60.50;;;;;;5059245;28;20024;-62
2023/08/16 08:22:17;;;;;;;6.35;3.72;;;28.40;60.50;;;;;;5060074;28;20025;-63
2023/08/16 08:24:43;;;;;;;8.57;4.13;;;28.50;60.60;;;;;;5061095;28;20028;-62
2023/08/16 08:27:08;;;;;;;7.30;4.05;;;28.60;60.50;;;;;;5057126;28;20072;-62
2023/08/16 08:29:34;;;;;;;7.10;4.03;;;28.60;60.30;;;;;;5062273;28;20025;-63
2023/08/16 08:32:00;;;;;;;14.45;4.07;;;28.70;60.10;;;;;;5066219;28;20451;-63
2023/08/16 08:34:26;;;;;;;7.97;3.42;;;28.80;59.60;;;;;;5062800;28;20091;-62
2023/08/16 08:36:52;;;;;;;7.90;3.72;;;28.90;59.50;;;;;;5066394;28;20453;-63
2023/08/16 08:39:19;;;;;;;7.00;3.78;;;28.90;59.40;;;;;;5063013;28;20052;-63
2023/08/16 08:41:47;;;;;;;6.25;3.65;;;29.00;59.20;;;;;;5057334;28;20086;-63
2023/08/16 08:44:17;;;;;;;7.18;4.03;;;29.10;59.00;;;;;;5064056;28;20043;-63
2023/08/16 08:46:46;;;;;;;6.93;4.20;;;29.10;58.50;;;;;;5067189;28;20032;-62
2023/08/16 08:49:14;;;;;;;7.03;3.67;;;29.20;58.60;;;;;;5059493;28;20468;-63
2023/08/16 08:51:41;;;;;;;6.40;3.15;;;29.20;58.60;;;;;;5067384;28;21374;-63
2023/08/16 08:54:07;;;;;;;6.20;3.33;;;29.30;58.10;;;;;;5076875;28;20078;-62
2023/08/16 08:56:33;;;;;;;6.55;3.67;;;29.30;57.80;;;;;;5067247;28;20037;-62
2023/08/16 08:59:01;;;;;;;13.55;3.53;;;29.30;57.70;;;;;;5070067;28;20037;-62
2023/08/16 09:01:28;;;;;;;6.35;3.00;;;29.40;57.60;;;;;;5064176;28;20090;-63
2023/08/16 09:03:56;;;;;;;5.05;3.60;;;29.50;57.40;;;;;;5069138;28;20030;-64
2023/08/16 09:06:22;;;;;;;8.55;3.28;;;29.60;57.70;;;;;;5058952;28;20035;-63
2023/08/16 09:08:48;;;;;;;4.43;3.20;;;29.60;57.50;;;;;;5068805;28;20048;-63
2023/08/16 09:11:15;;;;;;;9.95;3.55;;;29.70;57.10;;;;;;5063166;28;20032;-63
2023/08/16 09:13:41;;;;;;;5.43;3.60;;;29.80;57.00;;;;;;5059689;28;20078;-62
2023/08/16 09:16:07;;;;;;;6.20;3.40;;;29.90;56.80;;;;;;5068327;28;20100;-63
2023/08/16 09:18:32;;;;;;;7.03;2.97;;;29.90;56.70;;;;;;5069956;28;20139;-63
2023/08/16 09:20:59;;;;;;;5.60;3.03;;;30.00;56.30;;;;;;5072242;28;20028;-63
2023/08/16 09:23:25;;;;;;;8.43;3.13;;;30.10;55.90;;;;;;5065252;28;20028;-63
2023/08/16 09:25:51;;;;;;;5.35;3.00;;;30.20;55.60;;;;;;5063146;28;20036;-63
2023/08/16 09:28:17;;;;;;;7.00;2.85;;;30.20;55.40;;;;;;5064477;28;20024;-63
2023/08/16 09:30:43;;;;;;;4.88;2.78;;;30.30;55.30;;;;;;5070436;28;20669;-63
2023/08/16 09:33:12;;;;;;;4.90;2.67;;;30.40;55.30;;;;;;5066655;28;20062;-62
2023/08/16 09:35:44;;;;;;;5.15;3.00;;;30.40;55.20;;;;;;5065181;28;20068;-63
2023/08/16 09:38:12;;;;;;;3.05;2.55;;;30.50;54.60;;;;;;5061810;28;20024;-63
2023/08/16 09:40:47;;;;;;;3.88;2.50;;;30.60;54.60;;;;;;5066994;28;20570;-63
2023/08/16 09:43:13;;;;;;;3.10;2.25;;;30.70;53.60;;;;;;5048302;28;20060;-63
2023/08/16 09:45:40;;;;;;;6.00;2.90;;;30.80;54.20;;;;;;5057435;28;20056;-63
2023/08/16 09:48:08;;;;;;;6.07;2.47;;;30.90;53.80;;;;;;5070469;28;20025;-63
2023/08/16 09:50:35;;;;;;;4.47;2.55;;;31.00;53.30;;;;;;5071239;28;20028;-64
2023/08/16 09:53:05;;;;;;;4.35;2.40;;;31.10;53.10;;;;;;5058166;28;20408;-64
2023/08/16 09:55:33;;;;;;;3.85;2.47;;;31.20;53.00;;;;;;5063610;28;20016;-64
2023/08/16 09:57:59;;;;;;;3.08;2.05;;;31.20;52.60;;;;;;5063137;28;20111;-65
2023/08/16 10:00:30;;;;;;;4.63;2.90;;;31.30;52.60;;;;;;5064537;28;20021;-63
2023/08/16 10:02:56;;;;;;;5.57;2.78;;;31.40;52.50;;;;;;5056773;28;20020;-63
2023/08/16 10:05:24;;;;;;;4.00;2.40;;;31.50;52.40;;;;;;5066089;28;20037;-63
2023/08/16 10:07:51;;;;;;;3.60;2.30;;;31.60;52.10;;;;;;5068404;28;20024;-62
2023/08/16 10:10:18;;;;;;;3.15;2.00;;;31.70;51.80;;;;;;5067337;28;20110;-64
2023/08/16 10:12:45;;;;;;;4.70;2.10;;;31.80;51.80;;;;;;5067300;28;20036;-63
2023/08/16 10:15:12;;;;;;;3.00;2.20;;;31.80;51.30;;;;;;5067887;28;20024;-63
2023/08/16 10:17:39;;;;;;;3.50;2.47;;;31.90;51.00;;;;;;5068344;28;20024;-63
2023/08/16 10:20:26;;;;;;;3.90;2.33;;;32.00;50.70;;;;;;5063966;28;20031;-63
2023/08/16 10:22:58;;;;;;;5.60;2.28;;;32.00;51.30;;;;;;5055899;28;22002;-63
2023/08/16 10:25:25;;;;;;;2.75;2.15;;;32.20;50.10;;;;;;5066351;28;20047;-63
2023/08/16 10:27:54;;;;;;;4.75;2.28;;;32.30;50.60;;;;;;5067282;28;20025;-64
2023/08/16 10:30:25;;;;;;;3.78;1.90;;;32.30;50.60;;;;;;5068437;28;20072;-64
2023/08/16 10:33:01;;;;;;;8.30;2.08;;;32.50;50.60;;;;;;5068728;28;20063;-64
2023/08/16 10:35:28;;;;;;;3.00;2.20;;;32.50;49.60;;;;;;5093846;27;20124;-64
2023/08/16 10:37:53;;;;;;;2.53;1.80;;;32.60;49.60;;;;;;5070665;28;20040;-64
2023/08/16 10:40:23;;;;;;;2.17;1.42;;;32.70;49.50;;;;;;5070206;28;20024;-62
2023/08/16 10:42:59;;;;;;;4.13;1.63;;;32.70;48.20;;;;;;5065502;28;20067;-64
2023/08/16 10:45:29;;;;;;;2.70;1.50;;;32.80;48.20;;;;;;5062801;28;20120;-63
2023/08/16 10:47:56;;;;;;;3.17;1.63;;;32.90;47.40;;;;;;5066135;28;20054;-64
2023/08/16 10:50:37;;;;;;;3.10;1.63;;;32.90;47.00;;;;;;5069196;28;20476;-64
2023/08/16 10:53:05;;;;;;;4.22;1.90;;;32.90;46.80;;;;;;5063528;28;20039;-64
2023/08/16 10:55:30;;;;;;;4.18;1.67;;;32.90;47.10;;;;;;5055837;28;20036;-64
2023/08/16 10:57:56;;;;;;;3.17;1.90;;;33.00;47.30;;;;;;5061478;28;20033;-64
2023/08/16 11:00:32;;;;;;;3.00;1.70;;;33.00;47.30;;;;;;5063759;28;20029;-63
2023/08/16 11:03:01;;;;;;;5.43;2.13;;;33.00;46.60;;;;;;5058017;28;20106;-64
2023/08/16 11:05:29;;;;;;;5.75;1.90;;;33.10;47.60;;;;;;5064201;28;20039;-64
2023/08/16 11:07:55;;;;;;;4.43;2.10;;;33.20;46.90;;;;;;5061409;28;20024;-63
2023/08/16 11:10:32;;;;;;;4.45;1.85;;;33.20;46.30;;;;;;5064451;28;20113;-64
2023/08/16 11:12:59;;;;;;;5.38;1.63;;;33.20;45.90;;;;;;5062344;28;20507;-64
2023/08/16 11:15:26;;;;;;;2.78;1.98;;;33.30;46.30;;;;;;5065801;28;20032;-64
2023/08/16 11:17:52;;;;;;;2.55;1.70;;;33.30;47.30;;;;;;5065792;28;20082;-63
2023/08/16 11:20:19;;;;;;;6.40;2.17;;;33.30;46.80;;;;;;5068737;28;20044;-64
2023/08/16 11:22:46;;;;;;;3.25;1.92;;;33.30;46.70;;;;;;5069229;28;20040;-64
2023/08/16 11:25:11;;;;;;;2.97;2.15;;;33.40;46.60;;;;;;5056005;28;20024;-64
2023/08/16 11:27:38;;;;;;;3.30;1.80;;;33.50;45.70;;;;;;4995757;28;20462;-64
2023/08/16 11:30:05;;;;;;;2.67;1.60;;;33.60;45.90;;;;;;5062722;28;20020;-64
2023/08/16 11:32:32;;;;;;;3.10;1.73;;;33.60;44.90;;;;;;5058490;28;20586;-64
2023/08/16 11:34:58;;;;;;;6.70;2.20;;;33.60;44.70;;;;;;5063924;28;20445;-64
2023/08/16 11:37:24;;;;;;;5.80;2.00;;;33.70;44.60;;;;;;5057366;28;20066;-64
2023/08/16 11:40:07;;;;;;;2.45;1.77;;;33.80;45.30;;;;;;5056646;28;20039;-63
2023/08/16 11:42:33;;;;;;;3.42;1.75;;;33.80;44.70;;;;;;5057900;28;20032;-63
2023/08/16 11:44:59;;;;;;;2.17;1.52;;;33.90;45.00;;;;;;5066760;28;20025;-63
2023/08/16 11:47:25;;;;;;;5.00;1.40;;;34.00;45.00;;;;;;5066069;28;20029;-63
2023/08/16 11:49:51;;;;;;;3.53;1.70;;;34.00;44.10;;;;;;5066072;28;20029;-64
2023/08/16 11:52:21;;;;;;;2.13;1.30;;;34.10;44.20;;;;;;5063673;28;20044;-63
2023/08/16 11:54:47;;;;;;;4.60;1.55;;;34.20;44.30;;;;;;5062709;28;20025;-64
2023/08/16 11:57:18;;;;;;;4.55;1.63;;;34.30;44.00;;;;;;5062594;28;20557;-63
2023/08/16 11:59:54;;;;;;;2.28;1.70;;;34.30;43.70;;;;;;5058367;28;20025;-63
2023/08/16 12:02:21;;;;;;;3.33;1.50;;;34.40;42.10;;;;;;5066422;28;20054;-63
2023/08/16 12:04:47;;;;;;;2.40;1.75;;;34.50;43.60;;;;;;5065496;28;20021;-63
2023/08/16 12:07:12;;;;;;;2.35;1.48;;;34.60;43.60;;;;;;5062682;28;21173;-63
2023/08/16 12:09:40;;;;;;;2.60;1.60;;;34.60;43.50;;;;;;5066360;28;20423;-63
2023/08/16 12:12:08;;;;;;;2.15;1.33;;;34.60;42.50;;;;;;5059524;28;20033;-63
2023/08/16 12:14:34;;;;;;;4.15;1.85;;;34.80;41.90;;;;;;5056429;28;20028;-64
2023/08/16 12:17:00;;;;;;;2.10;1.40;;;34.80;42.10;;;;;;5059424;28;20040;-64
2023/08/16 12:19:25;;;;;;;2.72;1.50;;;34.80;41.30;;;;;;5067731;28;20028;-64
2023/08/16 12:21:52;;;;;;;1.92;1.35;;;34.90;41.60;;;;;;5066913;28;20170;-64
2023/08/16 12:24:19;;;;;;;2.85;1.20;;;34.90;41.80;;;;;;5054537;28;20028;-64
2023/08/16 12:26:45;;;;;;;3.50;1.83;;;35.00;41.50;;;;;;5059791;28;20464;-63
2023/08/16 12:29:10;;;;;;;2.30;1.38;;;35.10;42.00;;;;;;5059238;28;20099;-64
2023/08/16 12:31:36;;;;;;;2.80;1.38;;;35.10;41.40;;;;;;5060964;28;20345;-62
2023/08/16 12:34:02;;;;;;;2.67;1.50;;;35.20;41.50;;;;;;5068167;28;20017;-65
2023/08/16 12:36:27;;;;;;;6.20;1.30;;;35.20;40.60;;;;;;5064611;28;20044;-65
2023/08/16 12:38:53;;;;;;;2.95;1.23;;;35.30;39.60;;;;;;5067140;28;20071;-64
2023/08/16 12:41:19;;;;;;;3.60;1.40;;;35.40;40.00;;;;;;5063568;28;20044;-64
2023/08/16 12:43:44;;;;;;;2.47;0.98;;;35.40;40.00;;;;;;5063469;28;20028;-63